createdAt,value
2019-05-23T00:00:01.596Z,8.35
2019-05-23T00:02:52.706Z,7.47
2019-05-23T00:05:43.681Z,7.80
2019-05-23T00:08:34.490Z,8.93
2019-05-23T00:11:24.521Z,9.58
2019-05-23T00:14:07.889Z,9.63
2019-05-23T00:16:40.622Z,9.98
2019-05-23T00:19:12.927Z,10.58
2019-05-23T00:21:44.011Z,8.80
2019-05-23T00:24:14.942Z,10.35
2019-05-23T00:26:45.545Z,8.75
2019-05-23T00:29:17.613Z,9.50
2019-05-23T00:31:53.846Z,8.43
2019-05-23T00:34:25.709Z,9.28
2019-05-23T00:36:57.453Z,8.70
2019-05-23T00:39:28.976Z,9.98
2019-05-23T00:41:59.522Z,8.95
2019-05-23T00:44:30.447Z,8.20
2019-05-23T00:47:01.717Z,9.05
2019-05-23T00:49:33.622Z,8.05
2019-05-23T00:52:04.809Z,8.05
2019-05-23T00:54:35.094Z,8.28
2019-05-23T00:57:07.117Z,7.67
2019-05-23T00:59:38.449Z,7.90
2019-05-23T01:02:09.459Z,8.73
2019-05-23T01:04:42.141Z,9.83
2019-05-23T01:07:14.266Z,7.90
2019-05-23T01:09:46.254Z,7.87
2019-05-23T01:12:18.279Z,8.15
2019-05-23T01:14:49.133Z,10.63
2019-05-23T01:17:21.690Z,9.48
2019-05-23T01:19:53.690Z,8.15
2019-05-23T01:22:25.349Z,8.40
2019-05-23T01:24:56.827Z,7.80
2019-05-23T01:27:27.897Z,8.58
2019-05-23T01:29:58.252Z,9.70
2019-05-23T01:32:36.521Z,8.13
2019-05-23T01:35:07.466Z,8.55
2019-05-23T01:37:39.298Z,9.05
2019-05-23T01:40:11.621Z,8.48
2019-05-23T01:42:42.185Z,9.13
2019-05-23T01:45:14.337Z,8.75
2019-05-23T01:47:46.061Z,8.55
2019-05-23T01:50:19.154Z,9.33
2019-05-23T01:52:50.097Z,10.10
2019-05-23T01:55:21.351Z,9.58
2019-05-23T01:57:52.389Z,10.30
2019-05-23T02:00:26.834Z,7.92
2019-05-23T02:02:59.209Z,9.13
2019-05-23T02:05:29.710Z,8.55
2019-05-23T02:08:00.840Z,8.75
2019-05-23T02:10:31.715Z,8.48
2019-05-23T02:13:02.196Z,9.18
2019-05-23T02:15:33.638Z,8.03
2019-05-23T02:18:05.089Z,9.38
2019-05-23T02:20:35.389Z,10.35
2019-05-23T02:23:09.628Z,8.15
2019-05-23T02:25:41.956Z,9.18
2019-05-23T02:28:13.604Z,9.25
2019-05-23T02:30:43.907Z,8.85
2019-05-23T02:33:15.051Z,9.58
2019-05-23T02:35:45.771Z,9.55
2019-05-23T02:38:41.381Z,8.95
2019-05-23T02:41:36.011Z,10.55
2019-05-23T02:44:19.181Z,8.70
2019-05-23T02:46:53.857Z,8.23
2019-05-23T02:49:26.396Z,8.40
2019-05-23T02:51:57.676Z,8.48
2019-05-23T02:54:30.541Z,7.97
2019-05-23T02:57:04.006Z,8.93
2019-05-23T02:59:42.193Z,11.63
2019-05-23T03:02:51.702Z,9.43
2019-05-23T03:05:25.105Z,8.58
2019-05-23T03:07:56.574Z,10.90
2019-05-23T03:10:30.832Z,9.05
2019-05-23T03:13:01.820Z,9.95
2019-05-23T03:15:33.406Z,7.95
2019-05-23T03:18:04.889Z,8.63
2019-05-23T03:20:35.277Z,9.28
2019-05-23T03:23:11.547Z,9.50
2019-05-23T03:26:13.043Z,8.40
2019-05-23T03:28:44.423Z,9.13
2019-05-23T03:31:31.489Z,10.08
2019-05-23T03:34:00.182Z,9.25
2019-05-23T03:36:31.012Z,9.50
2019-05-23T03:39:01.899Z,9.23
2019-05-23T03:41:34.689Z,8.38
2019-05-23T03:44:07.302Z,9.00
2019-05-23T03:46:42.672Z,9.78
2019-05-23T03:49:14.803Z,8.18
2019-05-23T03:51:46.924Z,8.05
2019-05-23T03:54:18.112Z,10.48
2019-05-23T03:56:49.802Z,9.23
2019-05-23T03:59:21.854Z,8.28
2019-05-23T04:01:54.319Z,9.43
2019-05-23T04:04:25.942Z,8.95
2019-05-23T04:06:57.283Z,10.18
2019-05-23T04:09:27.901Z,8.38
2019-05-23T04:11:58.708Z,10.00
2019-05-23T04:14:29.660Z,11.93
2019-05-23T04:17:00.335Z,12.90
2019-05-23T04:19:31.027Z,9.88
2019-05-23T04:22:01.587Z,10.53
2019-05-23T04:24:32.055Z,10.68
2019-05-23T04:27:02.676Z,8.85
2019-05-23T04:29:34.554Z,10.78
2019-05-23T04:32:08.726Z,9.80
2019-05-23T04:34:38.125Z,8.33
2019-05-23T04:37:08.681Z,6.97
2019-05-23T04:39:39.354Z,9.00
2019-05-23T04:42:10.349Z,7.78
2019-05-23T04:44:43.952Z,7.72
2019-05-23T04:47:12.640Z,7.60
2019-05-23T04:49:42.962Z,8.20
2019-05-23T04:52:13.551Z,8.28
2019-05-23T04:54:44.489Z,8.27
2019-05-23T04:57:17.160Z,9.78
2019-05-23T04:59:48.036Z,9.98
2019-05-23T05:02:26.130Z,8.00
2019-05-23T05:04:52.593Z,9.15
2019-05-23T05:07:22.950Z,7.70
2019-05-23T05:09:53.636Z,8.73
2019-05-23T05:12:24.068Z,9.50
2019-05-23T05:14:54.752Z,11.45
2019-05-23T05:17:25.236Z,9.03
2019-05-23T05:19:55.665Z,9.20
2019-05-23T05:22:26.126Z,9.75
2019-05-23T05:24:56.445Z,9.43
2019-05-23T05:27:26.953Z,8.95
2019-05-23T05:29:57.469Z,10.60
2019-05-23T05:32:43.310Z,11.17
2019-05-23T05:35:00.727Z,8.03
2019-05-23T05:37:32.146Z,8.97
2019-05-23T05:40:02.570Z,9.00
2019-05-23T05:42:33.958Z,9.70
2019-05-23T05:45:06.216Z,9.07
2019-05-23T05:47:36.714Z,9.90
2019-05-23T05:50:09.985Z,8.77
2019-05-23T05:52:40.439Z,9.03
2019-05-23T05:55:12.004Z,8.17
2019-05-23T05:57:42.606Z,10.57
2019-05-23T06:00:36.042Z,8.97
2019-05-23T06:03:07.064Z,9.30
2019-05-23T06:05:52.182Z,8.53
2019-05-23T06:08:23.098Z,9.50
2019-05-23T06:10:53.385Z,8.77
2019-05-23T06:13:23.882Z,9.57
2019-05-23T06:15:54.628Z,9.57
2019-05-23T06:18:25.153Z,9.80
2019-05-23T06:20:55.745Z,9.63
2019-05-23T06:23:26.229Z,10.80
2019-05-23T06:25:56.546Z,9.97
2019-05-23T06:28:27.817Z,9.83
2019-05-23T06:30:58.434Z,8.47
2019-05-23T06:33:30.953Z,10.67
2019-05-23T06:36:02.598Z,10.50
2019-05-23T06:38:33.198Z,9.50
2019-05-23T06:41:03.981Z,11.10
2019-05-23T06:43:36.742Z,11.13
2019-05-23T06:46:07.713Z,10.50
2019-05-23T06:48:38.243Z,11.47
2019-05-23T06:51:08.524Z,9.37
2019-05-23T06:53:38.818Z,10.60
2019-05-23T06:56:10.268Z,9.80
2019-05-23T06:58:40.581Z,11.77
2019-05-23T07:01:10.877Z,10.43
2019-05-23T07:03:43.611Z,10.93
2019-05-23T07:06:15.805Z,11.47
2019-05-23T07:08:46.284Z,12.13
2019-05-23T07:11:18.981Z,10.27
2019-05-23T07:13:49.537Z,13.97
2019-05-23T07:16:19.872Z,10.87
2019-05-23T07:18:50.242Z,11.80
2019-05-23T07:21:20.694Z,12.37
2019-05-23T07:23:51.042Z,11.97
2019-05-23T07:26:22.000Z,12.43
2019-05-23T07:28:52.744Z,14.67
2019-05-23T07:31:24.002Z,12.83
2019-05-23T07:34:01.553Z,13.90
2019-05-23T07:36:26.899Z,12.80
2019-05-23T07:38:57.599Z,14.07
2019-05-23T07:41:28.261Z,12.87
2019-05-23T07:43:58.988Z,13.10
2019-05-23T07:46:29.556Z,11.97
2019-05-23T07:49:00.395Z,13.43
2019-05-23T07:51:30.652Z,12.70
2019-05-23T07:54:31.846Z,14.90
2019-05-23T07:57:04.229Z,13.17
2019-05-23T07:59:34.549Z,14.47
2019-05-23T08:02:32.299Z,15.73
2019-05-23T08:05:03.077Z,13.80
2019-05-23T08:07:33.911Z,11.97
2019-05-23T08:10:05.209Z,11.23
2019-05-23T08:12:35.553Z,13.03
2019-05-23T08:15:06.138Z,13.13
2019-05-23T08:17:38.038Z,12.50
2019-05-23T08:20:08.889Z,11.63
2019-05-23T08:22:39.189Z,11.37
2019-05-23T08:25:09.677Z,10.90
2019-05-23T08:27:40.069Z,11.47
2019-05-23T08:30:10.775Z,9.43
2019-05-23T08:32:41.168Z,12.07
2019-05-23T08:35:16.181Z,13.20
2019-05-23T08:37:43.808Z,10.10
2019-05-23T08:40:15.716Z,8.27
2019-05-23T08:42:47.044Z,7.77
2019-05-23T08:45:18.798Z,4.27
2019-05-23T08:47:49.357Z,6.53
2019-05-23T08:50:20.244Z,6.80
2019-05-23T08:52:50.603Z,8.30
2019-05-23T08:55:22.436Z,4.90
2019-05-23T08:57:53.701Z,6.40
2019-05-23T09:00:26.971Z,11.93
2019-05-23T09:02:59.026Z,5.37
2019-05-23T09:05:30.279Z,5.60
2019-05-23T09:08:01.101Z,6.23
2019-05-23T09:10:32.863Z,5.50
2019-05-23T09:13:03.590Z,5.10
2019-05-23T09:15:33.941Z,5.20
2019-05-23T09:18:05.274Z,4.53
2019-05-23T09:20:36.205Z,4.47
2019-05-23T09:23:06.505Z,5.50
2019-05-23T09:25:36.921Z,5.60
2019-05-23T09:28:08.027Z,6.50
2019-05-23T09:30:38.730Z,4.97
2019-05-23T09:33:09.309Z,5.63
2019-05-23T09:35:39.920Z,5.40
2019-05-23T09:38:10.284Z,5.67
2019-05-23T09:40:40.562Z,5.10
2019-05-23T09:43:10.943Z,5.40
2019-05-23T09:45:41.374Z,5.70
2019-05-23T09:48:12.033Z,5.87
2019-05-23T09:50:42.369Z,4.83
2019-05-23T09:53:13.871Z,4.93
2019-05-23T09:55:44.724Z,6.40
2019-05-23T09:58:15.093Z,6.80
2019-05-23T10:00:45.345Z,6.50
2019-05-23T10:03:16.076Z,6.33
2019-05-23T10:05:47.394Z,6.73
2019-05-23T10:08:17.812Z,5.60
2019-05-23T10:10:48.144Z,4.43
2019-05-23T10:13:18.826Z,4.30
2019-05-23T10:16:14.185Z,5.53
2019-05-23T10:18:46.253Z,5.73
2019-05-23T10:21:16.714Z,6.87
2019-05-23T10:23:47.025Z,4.43
2019-05-23T10:26:17.889Z,4.57
2019-05-23T10:28:48.392Z,4.20
2019-05-23T10:31:18.726Z,4.33
2019-05-23T10:33:49.104Z,4.60
2019-05-23T10:36:19.992Z,5.23
2019-05-23T10:38:50.288Z,4.30
2019-05-23T10:41:20.596Z,3.73
2019-05-23T10:43:51.171Z,4.27
2019-05-23T10:46:21.696Z,5.53
2019-05-23T10:48:52.450Z,5.87
2019-05-23T10:51:22.905Z,3.80
2019-05-23T10:53:53.200Z,4.50
2019-05-23T10:56:23.604Z,4.80
2019-05-23T10:58:53.860Z,5.20
2019-05-23T11:01:24.846Z,4.87
2019-05-23T11:03:55.267Z,4.53
2019-05-23T11:06:25.706Z,5.13
2019-05-23T11:08:57.444Z,5.40
2019-05-23T11:11:28.033Z,4.70
2019-05-23T11:13:59.122Z,3.43
2019-05-23T11:16:29.448Z,4.77
2019-05-23T11:19:00.269Z,4.47
2019-05-23T11:21:30.635Z,4.70
2019-05-23T11:24:01.449Z,4.73
2019-05-23T11:26:31.838Z,3.40
2019-05-23T11:29:02.363Z,3.80
2019-05-23T11:31:33.153Z,4.17
2019-05-23T11:34:03.417Z,3.97
2019-05-23T11:36:36.532Z,4.23
2019-05-23T11:39:08.556Z,3.50
2019-05-23T11:41:39.323Z,3.80
2019-05-23T11:44:09.965Z,3.97
2019-05-23T11:46:40.426Z,3.37
2019-05-23T11:49:11.437Z,4.60
2019-05-23T11:51:42.935Z,4.73
2019-05-23T11:54:13.482Z,3.30
2019-05-23T11:56:44.152Z,4.83
2019-05-23T11:59:14.798Z,3.73
2019-05-23T12:02:02.664Z,4.67
2019-05-23T12:04:37.356Z,3.50
2019-05-23T12:07:16.277Z,3.33
2019-05-23T12:09:47.064Z,3.83
2019-05-23T12:12:17.528Z,2.63
2019-05-23T12:14:48.271Z,3.37
2019-05-23T12:17:20.219Z,3.50
2019-05-23T12:19:50.688Z,4.03
2019-05-23T12:22:21.796Z,3.37
2019-05-23T12:24:52.044Z,3.50
2019-05-23T12:27:22.338Z,3.53
2019-05-23T12:29:52.676Z,3.17
2019-05-23T12:32:23.100Z,4.43
2019-05-23T12:35:09.571Z,3.20
2019-05-23T12:37:25.399Z,4.60
2019-05-23T12:39:56.061Z,4.30
2019-05-23T12:42:26.429Z,3.90
2019-05-23T12:44:56.724Z,3.47
2019-05-23T12:47:35.798Z,3.50
2019-05-23T12:50:10.142Z,3.87
2019-05-23T12:52:40.702Z,3.30
2019-05-23T12:55:11.189Z,3.50
2019-05-23T12:57:41.669Z,3.30
2019-05-23T13:00:21.033Z,3.90
2019-05-23T13:02:51.909Z,3.87
2019-05-23T13:05:22.994Z,2.47
2019-05-23T13:07:54.569Z,3.30
2019-05-23T13:10:25.572Z,3.70
2019-05-23T13:12:56.139Z,2.80
2019-05-23T13:15:27.177Z,2.90
2019-05-23T13:17:57.539Z,2.57
2019-05-23T13:20:27.877Z,2.63
2019-05-23T13:22:58.571Z,3.00
2019-05-23T13:25:28.912Z,2.80
2019-05-23T13:27:59.305Z,2.77
2019-05-23T13:30:30.236Z,3.27
2019-05-23T13:33:03.555Z,4.30
2019-05-23T13:35:33.690Z,3.10
2019-05-23T13:38:04.172Z,2.90
2019-05-23T13:40:34.896Z,2.97
2019-05-23T13:43:07.766Z,3.33
2019-05-23T13:45:37.688Z,3.10
2019-05-23T13:48:08.005Z,2.70
2019-05-23T13:50:38.781Z,2.60
2019-05-23T13:53:09.351Z,2.80
2019-05-23T13:55:40.085Z,2.70
2019-05-23T13:58:10.687Z,3.10
2019-05-23T14:00:42.114Z,2.10
2019-05-23T14:03:13.061Z,2.17
2019-05-23T14:05:44.112Z,2.90
2019-05-23T14:08:14.569Z,2.20
2019-05-23T14:10:45.807Z,2.10
2019-05-23T14:13:16.320Z,2.40
2019-05-23T14:15:48.542Z,2.53
2019-05-23T14:18:20.238Z,2.90
2019-05-23T14:20:50.925Z,2.70
2019-05-23T14:23:32.412Z,3.03
2019-05-23T14:26:03.342Z,2.37
2019-05-23T14:28:34.104Z,3.10
2019-05-23T14:31:10.286Z,2.60
2019-05-23T14:33:59.156Z,3.27
2019-05-23T14:36:57.330Z,3.00
2019-05-23T14:39:33.432Z,3.43
2019-05-23T14:42:22.946Z,3.07
2019-05-23T14:44:53.516Z,2.67
2019-05-23T14:47:43.007Z,3.40
2019-05-23T14:50:31.459Z,2.70
2019-05-23T14:53:02.489Z,3.37
2019-05-23T14:55:34.629Z,2.43
2019-05-23T14:58:05.157Z,2.17
2019-05-23T15:00:35.936Z,2.80
2019-05-23T15:03:06.695Z,2.67
2019-05-23T15:05:37.696Z,2.27
2019-05-23T15:08:08.104Z,2.90
2019-05-23T15:10:38.465Z,2.37
2019-05-23T15:13:08.809Z,2.27
2019-05-23T15:15:39.423Z,2.20
2019-05-23T15:18:10.086Z,2.60
2019-05-23T15:20:42.441Z,2.47
2019-05-23T15:23:12.886Z,2.60
2019-05-23T15:25:43.211Z,2.50
2019-05-23T15:28:13.726Z,2.80
2019-05-23T15:30:44.068Z,2.43
2019-05-23T15:33:14.621Z,3.13
2019-05-23T15:35:45.230Z,2.67
2019-05-23T15:38:15.525Z,2.63
2019-05-23T15:40:45.825Z,3.50
2019-05-23T15:43:16.512Z,2.90
2019-05-23T15:45:47.342Z,2.53
2019-05-23T15:48:17.793Z,2.77
2019-05-23T15:50:50.943Z,2.60
2019-05-23T15:53:37.285Z,2.70
2019-05-23T15:56:29.747Z,2.77
2019-05-23T15:59:25.134Z,2.93
2019-05-23T16:02:06.600Z,2.90
2019-05-23T16:04:37.276Z,3.67
2019-05-23T16:07:09.921Z,3.10
2019-05-23T16:09:40.451Z,2.43
2019-05-23T16:12:13.034Z,2.33
2019-05-23T16:14:43.649Z,2.60
2019-05-23T16:17:14.699Z,3.10
2019-05-23T16:19:45.092Z,3.37
2019-05-23T16:22:15.447Z,2.43
2019-05-23T16:24:45.845Z,3.00
2019-05-23T16:27:16.605Z,2.80
2019-05-23T16:29:47.008Z,2.43
2019-05-23T16:32:17.455Z,2.50
2019-05-23T16:34:48.203Z,3.40
2019-05-23T16:37:19.001Z,2.20
2019-05-23T16:39:56.254Z,2.57
2019-05-23T16:42:30.986Z,3.13
2019-05-23T16:45:05.330Z,2.57
2019-05-23T16:47:36.712Z,2.50
2019-05-23T16:50:07.357Z,3.67
2019-05-23T16:52:38.170Z,2.53
2019-05-23T16:55:14.700Z,2.60
2019-05-23T16:57:55.520Z,2.20
2019-05-23T17:00:52.585Z,2.00
2019-05-23T17:03:51.118Z,2.13
2019-05-23T17:06:37.231Z,3.03
2019-05-23T17:09:24.999Z,2.53
2019-05-23T17:12:05.670Z,2.10
2019-05-23T17:14:51.266Z,2.33
2019-05-23T17:17:59.999Z,2.20
2019-05-23T17:20:36.906Z,2.17
2019-05-23T17:23:16.637Z,2.50
2019-05-23T17:26:05.932Z,2.00
2019-05-23T17:28:46.158Z,2.30
2019-05-23T17:31:20.257Z,2.80
2019-05-23T17:33:51.143Z,2.57
2019-05-23T17:36:21.643Z,2.37
2019-05-23T17:38:52.432Z,2.57
2019-05-23T17:41:24.012Z,2.47
2019-05-23T17:43:54.424Z,2.37
2019-05-23T17:46:24.728Z,2.03
2019-05-23T17:48:55.133Z,2.93
2019-05-23T17:51:26.129Z,1.93
2019-05-23T17:53:56.510Z,2.23
2019-05-23T17:56:26.962Z,2.47
2019-05-23T17:58:57.421Z,2.73
2019-05-23T18:01:28.292Z,2.57
2019-05-23T18:03:59.624Z,1.93
2019-05-23T18:06:30.372Z,2.63
2019-05-23T18:09:01.146Z,2.30
2019-05-23T18:11:32.726Z,2.63
2019-05-23T18:14:03.816Z,2.30
2019-05-23T18:16:35.531Z,2.27
2019-05-23T18:19:06.317Z,2.27
2019-05-23T18:21:37.046Z,2.27
2019-05-23T18:24:08.837Z,2.00
2019-05-23T18:27:01.169Z,2.63
2019-05-23T18:30:06.070Z,2.13
2019-05-23T18:33:06.663Z,2.40
2019-05-23T18:36:04.090Z,2.20
2019-05-23T18:39:05.219Z,2.20
2019-05-23T18:41:35.920Z,2.10
2019-05-23T18:44:07.424Z,2.63
2019-05-23T18:46:43.322Z,2.57
2019-05-23T18:49:15.045Z,2.33
2019-05-23T18:51:45.348Z,2.30
2019-05-23T18:54:15.733Z,2.27
2019-05-23T18:56:46.321Z,2.27
2019-05-23T18:59:16.855Z,2.23
2019-05-23T19:01:47.349Z,2.70
2019-05-23T19:04:17.913Z,2.80
2019-05-23T19:06:48.665Z,3.20
2019-05-23T19:09:19.416Z,2.20
2019-05-23T19:11:49.753Z,2.83
2019-05-23T19:14:20.489Z,3.10
2019-05-23T19:16:51.144Z,2.47
2019-05-23T19:19:21.863Z,2.43
2019-05-23T19:21:52.495Z,2.57
2019-05-23T19:24:23.515Z,2.80
2019-05-23T19:26:54.350Z,2.10
2019-05-23T19:29:24.898Z,3.20
2019-05-23T19:31:55.681Z,2.77
2019-05-23T19:34:26.213Z,3.00
2019-05-23T19:36:56.619Z,4.20
2019-05-23T19:39:27.752Z,2.63
2019-05-23T19:41:58.587Z,2.70
2019-05-23T19:44:29.091Z,3.40
2019-05-23T19:46:59.512Z,2.77
2019-05-23T19:49:29.973Z,3.30
2019-05-23T19:52:00.791Z,2.67
2019-05-23T19:54:31.113Z,2.83
2019-05-23T19:57:02.412Z,2.73
2019-05-23T19:59:32.837Z,2.77
2019-05-23T20:02:30.592Z,2.77
2019-05-23T20:05:08.624Z,3.30
2019-05-23T20:07:39.953Z,2.37
2019-05-23T20:10:12.645Z,3.93
2019-05-23T20:12:43.082Z,3.60
2019-05-23T20:15:13.468Z,2.80
2019-05-23T20:17:43.871Z,3.07
2019-05-23T20:20:14.677Z,2.90
2019-05-23T20:22:45.025Z,3.30
2019-05-23T20:25:15.461Z,3.60
2019-05-23T20:27:46.635Z,3.13
2019-05-23T20:30:53.454Z,3.10
2019-05-23T20:33:24.217Z,2.90
2019-05-23T20:35:54.649Z,2.87
2019-05-23T20:38:26.347Z,3.60
2019-05-23T20:40:57.142Z,3.70
2019-05-23T20:43:27.644Z,3.90
2019-05-23T20:45:58.632Z,4.23
2019-05-23T20:48:29.221Z,3.97
2019-05-23T20:50:59.864Z,4.57
2019-05-23T20:53:30.636Z,4.37
2019-05-23T20:56:01.245Z,3.90
2019-05-23T20:58:31.606Z,4.40
2019-05-23T21:01:26.957Z,4.80
2019-05-23T21:03:59.084Z,5.23
2019-05-23T21:06:29.499Z,4.17
2019-05-23T21:09:00.689Z,4.33
2019-05-23T21:11:31.240Z,4.00
2019-05-23T21:14:02.006Z,4.03
2019-05-23T21:16:32.648Z,4.30
2019-05-23T21:19:03.354Z,5.17
2019-05-23T21:21:33.783Z,4.40
2019-05-23T21:24:05.840Z,4.67
2019-05-23T21:26:37.087Z,4.07
2019-05-23T21:33:09.013Z,4.70
2019-05-23T21:38:30.845Z,6.63
2019-05-23T21:41:04.347Z,7.20
2019-05-23T21:43:35.149Z,6.90
2019-05-23T21:46:06.109Z,7.47
2019-05-23T21:48:36.411Z,6.73
2019-05-23T21:51:07.477Z,7.50
2019-05-23T21:53:37.791Z,7.10
2019-05-23T21:56:08.123Z,7.27
2019-05-23T21:58:38.552Z,7.03
2019-05-23T22:03:07.218Z,6.73
2019-05-23T22:05:38.151Z,7.13
2019-05-23T22:08:08.833Z,7.50
2019-05-23T22:10:39.237Z,7.80
2019-05-23T22:13:09.550Z,6.33
2019-05-23T22:15:40.199Z,7.90
2019-05-23T22:18:11.657Z,9.70
2019-05-23T22:20:42.197Z,7.87
2019-05-23T22:23:13.035Z,11.17
2019-05-23T22:25:43.435Z,9.63
2019-05-23T22:28:14.153Z,9.40
2019-05-23T22:30:44.561Z,10.23
2019-05-23T22:33:17.678Z,8.87
2019-05-23T22:35:48.070Z,9.90
2019-05-23T22:38:18.596Z,8.50
2019-05-23T22:40:49.124Z,9.13
2019-05-23T22:43:21.384Z,7.30
2019-05-23T22:45:53.222Z,7.13
2019-05-23T22:48:23.561Z,6.90
2019-05-23T22:50:53.883Z,7.83
2019-05-23T22:53:24.314Z,6.10
2019-05-23T22:55:55.042Z,7.30
2019-05-23T22:58:25.768Z,5.97
2019-05-23T23:00:56.470Z,6.00
2019-05-23T23:03:26.881Z,5.60
2019-05-23T23:05:57.151Z,5.97
2019-05-23T23:08:28.160Z,6.27
2019-05-23T23:10:58.435Z,7.28
2019-05-23T23:13:38.610Z,6.80
2019-05-23T23:16:01.534Z,5.20
2019-05-23T23:18:31.948Z,7.17
2019-05-23T23:21:02.315Z,5.90
2019-05-23T23:23:32.827Z,6.10
2019-05-23T23:26:03.155Z,6.72
2019-05-23T23:28:34.058Z,6.80
2019-05-23T23:31:04.599Z,6.10
2019-05-23T23:33:34.968Z,5.60
2019-05-23T23:36:05.355Z,6.00
2019-05-23T23:38:35.761Z,5.90
2019-05-23T23:41:06.345Z,5.53
2019-05-23T23:43:36.842Z,6.78
2019-05-23T23:46:24.785Z,6.33
2019-05-23T23:49:12.951Z,6.47
2019-05-23T23:52:01.357Z,5.42
2019-05-23T23:54:49.480Z,6.35
2019-05-23T23:57:37.601Z,6.03
